Accueil
METAR-TAF:

METAR-TAF

Aéroports :

Le Caire, Égypte

Aéroport international du Caire

latitude: 30-08N, longitude: 031-24E, altitude: 64 m

Observation

Le bulletin a été fait il y a 33 minutes, à 02:30 UTC
Vent 6 kt de nord
Température 26°C
Humidité 84%
Pression 1010 hPa
Visibilité 10 km ou plus
pas de nuages en-dessous de 1500 mètres et pas de cumulonimbus.

METAR: HECA 240230Z 01006KT CAVOK 26/23 Q1010 NOSIG

Heure: 05:03 (03:03 UTC)

Prévision

Le bulletin a été fait il y a 4 heures et 3 minutes, à 23:00 UTC
Prévision valable du 24 à 00 UTC au 25 à 06 UTC
Vent 9 kt de nord
Visibilité 10 km ou plus
pas de nuages en-dessous de 1500 mètres et pas de cumulonimbus.
Temporairement
du 24 à 00 UTC au 24 à 06 UTC
Vent 3 kt de direction variable
Visibilité: 6000 m
Temporairement
du 24 à 03 UTC au 24 à 06 UTC
Visibilité: 4000 m
brume

TAF: HECA 232300Z 2400/2506 01009KT CAVOK TEMPO 2400/2406 VRB03KT 6000 NSC TEMPO 2403/2406 4000 BR

Observations et prévisions météorologiques de plus de 4000 aéroports (messages METAR et TAF).

Les stations disponibles sont représentées par des disques jaunes et rouges sur la carte.

Passer la souris dessus pour voir le nom de la station.

Cliquer dessus pour voir les observations et prévisions météorologiques.

Pour changer de carte: cliquez sur les boutons verts avec une croix noire pour zoomer, sur le bouton vert avec un tiret pour effectuer un zoom arrière, ou sur les flèches vertes pour les cartes adjacentes.


METAR-TAF: